createdAt,value
2023-02-11T00:01:36.870Z,19.25
2023-02-11T00:04:06.406Z,18.42
2023-02-11T00:06:35.262Z,19.38
2023-02-11T00:09:03.720Z,19.13
2023-02-11T00:11:33.812Z,19.60
2023-02-11T00:14:08.496Z,18.20
2023-02-11T00:16:37.425Z,17.52
2023-02-11T00:19:06.519Z,20.20
2023-02-11T00:21:35.764Z,19.20
2023-02-11T00:24:03.583Z,19.60
2023-02-11T00:26:33.558Z,19.50
2023-02-11T00:29:01.735Z,18.73
2023-02-11T00:31:31.566Z,18.90
2023-02-11T00:33:58.300Z,19.42
2023-02-11T00:36:30.310Z,19.42
2023-02-11T00:39:00.485Z,18.08
2023-02-11T00:41:28.380Z,19.85
2023-02-11T00:44:01.369Z,18.20
2023-02-11T00:46:28.368Z,20.27
2023-02-11T00:48:57.546Z,20.33
2023-02-11T00:51:28.398Z,18.45
2023-02-11T00:53:55.896Z,18.33
2023-02-11T00:56:23.000Z,18.27
2023-02-11T00:58:49.882Z,19.88
2023-02-11T01:01:17.482Z,19.45
2023-02-11T01:03:46.318Z,19.20
2023-02-11T01:06:17.622Z,19.73
2023-02-11T01:08:47.324Z,21.17
2023-02-11T01:11:18.355Z,19.33
2023-02-11T01:13:46.170Z,19.70
2023-02-11T01:16:15.990Z,17.95
2023-02-11T01:18:47.683Z,20.00
2023-02-11T01:21:19.755Z,19.73
2023-02-11T01:23:46.413Z,19.77
2023-02-11T01:26:13.324Z,19.70
2023-02-11T01:28:40.191Z,19.00
2023-02-11T01:31:09.055Z,19.90
2023-02-11T01:33:35.811Z,17.67
2023-02-11T01:36:07.401Z,18.95
2023-02-11T01:38:35.591Z,17.98
2023-02-11T01:41:06.499Z,18.35
2023-02-11T01:43:40.636Z,18.83
2023-02-11T01:46:31.216Z,19.20
2023-02-11T01:49:04.754Z,18.85
2023-02-11T01:51:37.848Z,19.45
2023-02-11T01:54:25.696Z,19.50
2023-02-11T01:57:15.257Z,19.58
2023-02-11T01:59:50.310Z,18.35
2023-02-11T02:02:32.592Z,17.27
2023-02-11T02:05:18.911Z,18.88
2023-02-11T02:08:13.344Z,18.15
2023-02-11T02:10:48.213Z,18.05
2023-02-11T02:13:17.255Z,19.00
2023-02-11T02:15:53.358Z,20.08
2023-02-11T02:18:55.973Z,18.67
2023-02-11T02:22:07.284Z,18.58
2023-02-11T02:24:56.531Z,18.27
2023-02-11T02:28:05.106Z,18.90
2023-02-11T02:31:10.458Z,18.10
2023-02-11T02:33:58.232Z,17.92
2023-02-11T02:36:50.468Z,17.88
2023-02-11T02:39:29.998Z,17.65
2023-02-11T02:41:58.398Z,18.38
2023-02-11T02:44:25.772Z,16.83
2023-02-11T02:46:52.397Z,17.85
2023-02-11T02:49:21.368Z,17.17
2023-02-11T02:52:03.845Z,17.77
2023-02-11T02:57:56.238Z,14.27
2023-02-11T03:00:34.832Z,16.17
2023-02-11T03:03:24.470Z,15.23
2023-02-11T03:06:15.247Z,15.52
2023-02-11T03:08:50.908Z,14.93
2023-02-11T03:11:19.269Z,16.33
2023-02-11T03:13:48.113Z,15.77
2023-02-11T03:16:23.241Z,15.50
2023-02-11T03:19:14.752Z,15.18
2023-02-11T03:21:43.616Z,14.48
2023-02-11T03:24:24.158Z,14.98
2023-02-11T03:26:54.640Z,14.77
2023-02-11T03:29:54.797Z,15.00
2023-02-11T03:32:30.994Z,15.80
2023-02-11T03:35:00.793Z,14.18
2023-02-11T03:37:43.155Z,15.10
2023-02-11T03:40:19.228Z,14.48
2023-02-11T03:42:53.256Z,15.48
2023-02-11T03:45:23.198Z,14.90
2023-02-11T03:47:54.821Z,14.00
2023-02-11T03:50:27.367Z,15.35
2023-02-11T03:53:00.433Z,15.02
2023-02-11T03:55:31.589Z,14.10
2023-02-11T03:57:59.014Z,14.23
2023-02-11T04:00:35.431Z,14.15
2023-02-11T04:03:03.112Z,13.45
2023-02-11T04:05:29.778Z,13.90
2023-02-11T04:07:56.326Z,13.07
2023-02-11T04:10:22.904Z,12.48
2023-02-11T04:12:49.473Z,11.85
2023-02-11T04:15:20.841Z,13.57
2023-02-11T04:17:47.410Z,14.27
2023-02-11T04:20:14.491Z,12.23
2023-02-11T04:22:41.103Z,12.88
2023-02-11T04:25:10.728Z,11.77
2023-02-11T04:27:39.848Z,13.10
2023-02-11T04:30:07.704Z,12.30
2023-02-11T04:32:36.756Z,12.85
2023-02-11T04:35:05.758Z,12.82
2023-02-11T04:37:34.751Z,13.13
2023-02-11T04:40:01.461Z,12.60
2023-02-11T04:42:28.129Z,13.05
2023-02-11T04:44:54.708Z,13.07
2023-02-11T04:47:26.193Z,12.60
2023-02-11T04:49:57.921Z,12.80
2023-02-11T04:52:24.567Z,12.65
2023-02-11T04:54:53.666Z,12.85
2023-02-11T04:57:23.170Z,12.90
2023-02-11T04:59:49.990Z,12.48
2023-02-11T05:02:22.806Z,13.15
2023-02-11T05:04:49.358Z,12.70
2023-02-11T05:07:21.197Z,12.90
2023-02-11T05:09:47.731Z,12.25
2023-02-11T05:12:14.440Z,12.35
2023-02-11T05:14:41.323Z,12.38
2023-02-11T05:17:12.787Z,12.52
2023-02-11T05:19:39.352Z,13.77
2023-02-11T05:22:08.589Z,12.02
2023-02-11T05:24:36.378Z,13.13
2023-02-11T05:27:05.399Z,13.02
2023-02-11T05:29:34.442Z,13.52
2023-02-11T05:32:06.126Z,12.25
2023-02-11T05:34:32.795Z,12.68
2023-02-11T05:37:01.967Z,12.82
2023-02-11T05:39:31.094Z,13.13
2023-02-11T05:42:02.594Z,12.63
2023-02-11T05:44:31.656Z,12.57
2023-02-11T05:46:58.198Z,12.18
2023-02-11T05:49:24.880Z,12.88
2023-02-11T05:52:05.374Z,12.48
2023-02-11T05:54:36.109Z,13.70
2023-02-11T05:57:08.671Z,13.00
2023-02-11T05:59:35.425Z,12.95
2023-02-11T06:02:04.384Z,13.15
2023-02-11T06:04:33.411Z,13.05
2023-02-11T06:07:01.810Z,13.85
2023-02-11T06:09:29.410Z,12.40
2023-02-11T06:12:01.542Z,13.77
2023-02-11T06:14:33.682Z,13.80
2023-02-11T06:17:02.933Z,14.18
2023-02-11T06:19:31.963Z,13.80
2023-02-11T06:22:00.980Z,12.13
2023-02-11T06:24:51.034Z,13.00
2023-02-11T06:27:19.174Z,12.88
2023-02-11T06:29:46.229Z,13.80
2023-02-11T06:32:36.897Z,13.25
2023-02-11T06:35:04.706Z,13.40
2023-02-11T06:37:31.287Z,13.52
2023-02-11T06:40:00.350Z,14.57
2023-02-11T06:42:37.976Z,13.18
2023-02-11T06:45:07.938Z,13.35
2023-02-11T06:47:37.530Z,14.40
2023-02-11T06:50:05.670Z,14.77
2023-02-11T06:52:37.505Z,13.27
2023-02-11T06:55:08.790Z,15.55
2023-02-11T06:57:35.417Z,15.40
2023-02-11T07:00:02.432Z,14.68
2023-02-11T07:02:30.094Z,16.35
2023-02-11T07:05:03.038Z,16.10
2023-02-11T07:07:34.213Z,16.38
2023-02-11T07:10:04.082Z,14.95
2023-02-11T07:12:31.745Z,15.65
2023-02-11T07:14:58.303Z,15.20
2023-02-11T07:17:27.435Z,16.60
2023-02-11T07:20:01.278Z,15.80
2023-02-11T07:22:33.354Z,16.63
2023-02-11T07:25:05.302Z,17.17
2023-02-11T07:27:31.998Z,16.00
2023-02-11T07:30:04.915Z,15.60
2023-02-11T07:32:35.806Z,15.63
2023-02-11T07:35:03.671Z,15.30
2023-02-11T07:37:30.274Z,16.65
2023-02-11T07:39:56.870Z,15.45
2023-02-11T07:42:23.979Z,15.82
2023-02-11T07:44:50.781Z,16.48
2023-02-11T07:47:17.402Z,16.80
2023-02-11T07:49:44.073Z,17.10
2023-02-11T07:52:10.684Z,16.83
2023-02-11T07:54:37.328Z,17.98
2023-02-11T07:57:03.938Z,17.85
2023-02-11T07:59:30.531Z,16.85
2023-02-11T08:01:57.224Z,16.88
2023-02-11T08:04:23.812Z,19.17
2023-02-11T08:06:52.623Z,17.60
2023-02-11T08:09:19.302Z,18.40
2023-02-11T08:11:45.882Z,18.27
2023-02-11T08:14:13.646Z,16.95
2023-02-11T08:16:40.660Z,16.77
2023-02-11T08:19:14.040Z,17.27
2023-02-11T08:21:41.183Z,17.60
2023-02-11T08:24:08.606Z,16.45
2023-02-11T08:26:35.934Z,18.15
2023-02-11T08:29:07.264Z,19.15
2023-02-11T08:31:37.250Z,20.02
2023-02-11T08:34:03.915Z,19.80
2023-02-11T08:36:33.995Z,19.40
2023-02-11T08:39:18.009Z,18.50
2023-02-11T08:41:48.594Z,19.63
2023-02-11T08:44:15.308Z,18.40
2023-02-11T08:46:41.889Z,18.92
2023-02-11T08:49:08.552Z,18.38
2023-02-11T08:51:35.146Z,19.30
2023-02-11T08:54:02.168Z,20.27
2023-02-11T08:56:31.265Z,19.50
2023-02-11T08:58:59.886Z,18.27
2023-02-11T09:01:29.540Z,19.77
2023-02-11T09:03:57.148Z,19.38
2023-02-11T09:06:24.864Z,19.80
2023-02-11T09:08:54.973Z,19.45
2023-02-11T09:11:26.310Z,20.27
2023-02-11T09:13:54.513Z,18.52
2023-02-11T09:16:27.432Z,18.70
2023-02-11T09:18:56.290Z,18.92
2023-02-11T09:21:23.140Z,21.50
2023-02-11T09:23:49.812Z,18.80
2023-02-11T09:26:21.354Z,21.27
2023-02-11T09:28:48.758Z,21.50
2023-02-11T09:31:18.834Z,21.40
2023-02-11T09:33:48.296Z,20.10
2023-02-11T09:36:20.011Z,20.52
2023-02-11T09:38:47.680Z,20.38
2023-02-11T09:41:56.292Z,21.80
2023-02-11T09:44:29.267Z,21.08
2023-02-11T09:47:02.633Z,19.88
2023-02-11T09:49:36.906Z,21.20
2023-02-11T09:52:35.344Z,22.50
2023-02-11T09:55:18.567Z,21.40
2023-02-11T09:57:45.381Z,22.17
2023-02-11T10:00:23.828Z,22.05
2023-02-11T10:03:08.903Z,23.10
2023-02-11T10:05:56.343Z,22.33
2023-02-11T10:08:41.251Z,22.27
2023-02-11T10:11:32.051Z,20.92
2023-02-11T10:14:19.981Z,22.27
2023-02-11T10:17:09.047Z,22.55
2023-02-11T10:19:41.124Z,22.17
2023-02-11T10:22:19.946Z,23.35
2023-02-11T10:25:00.407Z,23.13
2023-02-11T10:27:32.862Z,23.27
2023-02-11T10:30:15.915Z,22.52
2023-02-11T10:33:02.041Z,24.67
2023-02-11T10:35:32.105Z,23.30
2023-02-11T10:37:59.820Z,22.30
2023-02-11T10:40:30.857Z,22.48
2023-02-11T10:43:00.902Z,22.98
2023-02-11T10:45:44.037Z,23.08
2023-02-11T10:48:41.938Z,21.98
2023-02-11T10:51:19.002Z,22.33
2023-02-11T10:53:47.193Z,23.95
2023-02-11T10:56:24.126Z,23.05
2023-02-11T10:59:05.557Z,23.40
2023-02-11T11:01:58.933Z,22.50
2023-02-11T11:04:37.064Z,23.67
2023-02-11T11:07:21.930Z,23.27
2023-02-11T11:09:56.664Z,22.77
2023-02-11T11:12:28.173Z,22.70
2023-02-11T11:15:23.306Z,22.83
2023-02-11T11:17:51.604Z,21.70
2023-02-11T11:20:28.012Z,22.25
2023-02-11T11:23:19.573Z,22.13
2023-02-11T11:26:18.762Z,23.02
2023-02-11T11:28:59.653Z,22.42
2023-02-11T11:31:37.430Z,24.85
2023-02-11T11:34:23.000Z,23.27
2023-02-11T11:36:50.238Z,22.00
2023-02-11T11:39:32.047Z,24.75
2023-02-11T11:41:59.883Z,24.02
2023-02-11T11:44:35.972Z,23.38
2023-02-11T11:47:11.235Z,23.52
2023-02-11T11:49:45.470Z,23.90
2023-02-11T11:52:32.660Z,24.35
2023-02-11T11:55:07.751Z,22.73
2023-02-11T11:57:37.715Z,22.48
2023-02-11T12:00:05.183Z,22.77
2023-02-11T12:02:32.771Z,22.83
2023-02-11T12:05:08.315Z,22.92
2023-02-11T12:08:07.931Z,24.40
2023-02-11T12:10:58.483Z,25.08
2023-02-11T12:13:55.046Z,22.70
2023-02-11T12:16:59.034Z,23.35
2023-02-11T12:19:52.746Z,22.35
2023-02-11T12:22:40.967Z,23.13
2023-02-11T12:25:26.109Z,24.52
2023-02-11T12:28:01.796Z,24.67
2023-02-11T12:30:49.014Z,23.27
2023-02-11T12:33:36.959Z,24.70
2023-02-11T12:36:06.505Z,23.10
2023-02-11T12:39:09.108Z,23.92
2023-02-11T12:42:28.534Z,24.92
2023-02-11T12:45:16.038Z,22.80
2023-02-11T12:47:54.489Z,23.70
2023-02-11T12:50:27.669Z,23.20
2023-02-11T12:53:23.654Z,22.08
2023-02-11T12:55:57.833Z,23.73
2023-02-11T12:58:42.933Z,23.08
2023-02-11T13:01:23.478Z,24.40
2023-02-11T13:03:58.791Z,23.52
2023-02-11T13:06:44.353Z,24.58
2023-02-11T13:09:18.891Z,24.48
2023-02-11T13:11:51.855Z,23.75
2023-02-11T13:14:28.256Z,25.27
2023-02-11T13:16:56.922Z,23.80
2023-02-11T13:19:31.382Z,24.48
2023-02-11T13:22:18.828Z,25.25
2023-02-11T13:25:06.490Z,25.58
2023-02-11T13:28:02.413Z,24.17
2023-02-11T13:30:34.405Z,23.52
2023-02-11T13:33:00.987Z,24.33
2023-02-11T13:35:31.934Z,23.90
2023-02-11T13:38:05.389Z,25.67
2023-02-11T13:40:38.147Z,25.00
2023-02-11T13:43:06.979Z,25.00
2023-02-11T13:45:44.891Z,23.20
2023-02-11T13:48:30.817Z,25.83
2023-02-11T13:51:07.633Z,24.65
2023-02-11T13:53:48.680Z,23.85
2023-02-11T13:56:33.773Z,23.90
2023-02-11T13:59:03.319Z,23.10
2023-02-11T14:02:13.842Z,23.17
2023-02-11T14:05:21.518Z,24.15
2023-02-11T14:08:28.634Z,24.33
2023-02-11T14:11:25.043Z,22.90
2023-02-11T14:13:51.647Z,22.33
2023-02-11T14:16:36.388Z,23.60
2023-02-11T14:19:03.848Z,22.98
2023-02-11T14:21:36.574Z,24.38
2023-02-11T14:24:04.729Z,22.73
2023-02-11T14:26:41.341Z,24.00
2023-02-11T14:29:22.779Z,24.63
2023-02-11T14:32:15.516Z,23.35
2023-02-11T14:37:50.039Z,23.02
2023-02-11T14:40:52.955Z,23.92
2023-02-11T14:43:31.301Z,23.90
2023-02-11T14:46:01.172Z,24.30
2023-02-11T14:48:31.124Z,25.25
2023-02-11T14:51:33.247Z,25.05
2023-02-11T14:54:25.186Z,24.47
2023-02-11T14:57:24.954Z,24.25
2023-02-11T14:59:58.673Z,23.85
2023-02-11T15:02:34.632Z,26.52
2023-02-11T15:05:26.001Z,25.50
2023-02-11T15:08:01.600Z,25.50
2023-02-11T15:10:35.824Z,24.45
2023-02-11T15:13:04.480Z,25.88
2023-02-11T15:15:33.543Z,25.38
2023-02-11T15:18:03.368Z,25.08
2023-02-11T15:20:32.854Z,24.20
2023-02-11T15:23:03.190Z,24.80
2023-02-11T15:25:32.320Z,25.10
2023-02-11T15:28:21.634Z,26.60
2023-02-11T15:31:00.895Z,24.83
2023-02-11T15:33:30.518Z,25.00
2023-02-11T15:35:58.026Z,25.02
2023-02-11T15:38:27.764Z,25.17
2023-02-11T15:41:00.797Z,25.88
2023-02-11T15:43:43.834Z,24.88
2023-02-11T15:46:14.278Z,26.45
2023-02-11T15:48:47.247Z,22.25
2023-02-11T15:51:22.214Z,23.77
2023-02-11T15:53:56.890Z,26.38
2023-02-11T15:56:37.414Z,25.08
2023-02-11T15:59:25.598Z,25.83
2023-02-11T16:01:53.218Z,27.98
2023-02-11T16:04:25.890Z,26.27
2023-02-11T16:06:54.484Z,26.80
2023-02-11T16:09:34.409Z,26.73
2023-02-11T16:12:07.281Z,27.15
2023-02-11T16:14:39.194Z,28.13
2023-02-11T16:17:17.213Z,28.10
2023-02-11T16:19:47.279Z,26.73
2023-02-11T16:22:22.949Z,24.42
2023-02-11T16:24:52.586Z,28.27
2023-02-11T16:27:23.860Z,28.10
2023-02-11T16:29:51.701Z,25.67
2023-02-11T16:32:21.571Z,26.20
2023-02-11T16:34:48.866Z,27.05
2023-02-11T16:37:15.973Z,25.48
2023-02-11T16:39:42.602Z,27.13
2023-02-11T16:42:11.498Z,26.02
2023-02-11T16:44:38.672Z,26.65
2023-02-11T16:47:08.133Z,28.17
2023-02-11T16:49:38.266Z,27.75
2023-02-11T16:52:12.678Z,26.00
2023-02-11T16:54:39.370Z,29.10
2023-02-11T16:57:14.585Z,27.83
2023-02-11T16:59:41.491Z,29.45
2023-02-11T17:02:27.778Z,29.58
2023-02-11T17:04:55.987Z,29.65
2023-02-11T17:07:22.799Z,30.10
2023-02-11T17:09:49.471Z,31.60
2023-02-11T17:12:16.046Z,30.45
2023-02-11T17:14:42.581Z,28.25
2023-02-11T17:17:10.228Z,29.20
2023-02-11T17:19:37.307Z,29.83
2023-02-11T17:22:04.337Z,29.42
2023-02-11T17:24:31.282Z,28.73
2023-02-11T17:26:58.020Z,29.30
2023-02-11T17:29:25.986Z,30.10
2023-02-11T17:31:53.042Z,29.42
2023-02-11T17:34:21.366Z,29.35
2023-02-11T17:36:50.643Z,28.23
2023-02-11T17:39:20.947Z,30.70
2023-02-11T17:41:47.672Z,28.60
2023-02-11T17:44:16.617Z,29.67
2023-02-11T17:46:43.847Z,29.23
2023-02-11T17:49:12.713Z,28.85
2023-02-11T17:51:45.566Z,30.42
2023-02-11T17:54:17.997Z,29.77
2023-02-11T17:56:50.553Z,30.10
2023-02-11T17:59:17.610Z,29.67
2023-02-11T18:01:46.322Z,27.98
2023-02-11T18:04:15.967Z,30.42
2023-02-11T18:06:44.316Z,31.40
2023-02-11T18:09:11.317Z,30.05
2023-02-11T18:11:38.955Z,31.02
2023-02-11T18:14:07.633Z,30.13
2023-02-11T18:16:40.730Z,30.77
2023-02-11T18:19:07.863Z,29.98
2023-02-11T18:21:34.640Z,30.33
2023-02-11T18:24:06.447Z,32.92
2023-02-11T18:29:05.934Z,29.88
2023-02-11T18:31:35.077Z,28.38
2023-02-11T18:34:05.744Z,30.83
2023-02-11T18:36:32.639Z,43.83
2023-02-11T18:39:04.621Z,36.17
2023-02-11T18:41:31.281Z,36.88
2023-02-11T18:43:58.664Z,34.50
2023-02-11T18:46:25.399Z,31.63
2023-02-11T18:48:55.570Z,34.20
2023-02-11T18:51:23.000Z,31.70
2023-02-11T18:53:49.660Z,30.48
2023-02-11T18:56:22.037Z,31.35
2023-02-11T19:01:26.970Z,44.97
2023-02-11T19:03:55.457Z,38.95
2023-02-11T19:06:31.806Z,34.22
2023-02-11T19:09:08.774Z,35.38
2023-02-11T19:11:54.650Z,33.38
2023-02-11T19:14:27.128Z,35.28
2023-02-11T19:17:00.384Z,34.53
2023-02-11T19:19:31.849Z,35.00
2023-02-11T19:22:02.979Z,33.50
2023-02-11T19:24:30.127Z,33.42
2023-02-11T19:26:59.630Z,35.50
2023-02-11T19:29:26.748Z,32.63
2023-02-11T19:32:07.718Z,32.58
2023-02-11T19:34:40.993Z,29.63
2023-02-11T19:37:11.620Z,32.17
2023-02-11T19:39:43.706Z,32.15
2023-02-11T19:42:11.186Z,32.22
2023-02-11T19:44:38.127Z,32.22
2023-02-11T19:47:07.192Z,32.28
2023-02-11T19:49:34.383Z,33.42
2023-02-11T19:52:00.953Z,33.78
2023-02-11T19:54:32.684Z,31.60
2023-02-11T19:57:03.476Z,33.88
2023-02-11T19:59:30.216Z,33.13
2023-02-11T20:01:57.479Z,31.52
2023-02-11T20:04:26.466Z,32.13
2023-02-11T20:06:55.182Z,34.38
2023-02-11T20:09:24.084Z,33.40
2023-02-11T20:11:55.840Z,34.55
2023-02-11T20:14:27.739Z,33.15
2023-02-11T20:16:54.540Z,33.30
2023-02-11T20:19:24.649Z,30.98
2023-02-11T20:21:57.792Z,31.15
2023-02-11T20:24:25.617Z,30.75
2023-02-11T20:27:01.005Z,30.58
2023-02-11T20:29:37.762Z,31.63
2023-02-11T20:32:08.052Z,33.42
2023-02-11T20:34:34.816Z,31.80
2023-02-11T20:37:06.511Z,31.00
2023-02-11T20:39:37.249Z,34.53
2023-02-11T20:42:06.311Z,30.55
2023-02-11T20:44:32.902Z,31.27
2023-02-11T20:47:02.076Z,31.92
2023-02-11T20:49:29.884Z,32.80
2023-02-11T20:52:00.733Z,31.52
2023-02-11T20:54:27.486Z,33.05
2023-02-11T20:56:58.962Z,30.58
2023-02-11T20:59:26.872Z,33.15
2023-02-11T21:01:57.802Z,30.23
2023-02-11T21:04:38.500Z,30.80
2023-02-11T21:07:12.884Z,33.40
2023-02-11T21:09:39.951Z,31.42
2023-02-11T21:12:07.647Z,30.52
2023-02-11T21:14:38.843Z,30.55
2023-02-11T21:17:09.233Z,32.42
2023-02-11T21:19:43.810Z,31.45
2023-02-11T21:22:15.402Z,31.50
2023-02-11T21:24:44.354Z,29.25
2023-02-11T21:27:13.780Z,30.20
2023-02-11T21:29:52.797Z,32.67
2023-02-11T21:32:22.259Z,30.15
2023-02-11T21:34:49.075Z,30.63
2023-02-11T21:37:18.128Z,32.67
2023-02-11T21:39:46.833Z,31.10
2023-02-11T21:42:15.793Z,30.85
2023-02-11T21:44:42.511Z,30.30
2023-02-11T21:47:09.091Z,29.95
2023-02-11T21:49:37.123Z,30.45
2023-02-11T21:52:11.753Z,31.10
2023-02-11T21:54:40.978Z,30.42
2023-02-11T21:57:09.842Z,32.92
2023-02-11T21:59:36.389Z,31.25
2023-02-11T22:02:06.000Z,31.27
2023-02-11T22:04:37.510Z,31.50
2023-02-11T22:07:07.692Z,31.03
2023-02-11T22:09:41.427Z,31.00
2023-02-11T22:12:25.067Z,30.65
2023-02-11T22:14:51.675Z,31.52
2023-02-11T22:17:22.925Z,32.05
2023-02-11T22:19:49.769Z,32.15
2023-02-11T22:22:18.180Z,31.15
2023-02-11T22:24:47.252Z,31.40
2023-02-11T22:27:21.171Z,32.15
2023-02-11T22:29:50.147Z,33.70
2023-02-11T22:32:21.446Z,30.92
2023-02-11T22:34:48.108Z,30.92
2023-02-11T22:37:14.951Z,31.73
2023-02-11T22:39:42.537Z,31.35
2023-02-11T22:42:11.942Z,31.92
2023-02-11T22:44:43.979Z,32.33
2023-02-11T22:47:10.601Z,32.15
2023-02-11T22:49:37.392Z,30.65
2023-02-11T22:52:08.967Z,31.95
2023-02-11T22:54:41.546Z,34.00
2023-02-11T22:57:08.328Z,31.33
2023-02-11T22:59:35.907Z,31.65
2023-02-11T23:02:02.614Z,32.78
2023-02-11T23:04:29.274Z,33.13
2023-02-11T23:06:55.857Z,34.72
2023-02-11T23:09:22.536Z,33.78
2023-02-11T23:11:54.174Z,34.72
2023-02-11T23:14:21.294Z,34.40
2023-02-11T23:16:49.866Z,35.15
2023-02-11T23:19:16.951Z,34.38
2023-02-11T23:21:47.099Z,32.58
2023-02-11T23:24:15.686Z,34.28
2023-02-11T23:26:43.849Z,34.30
2023-02-11T23:29:13.343Z,32.55
2023-02-11T23:31:45.110Z,33.75
2023-02-11T23:34:18.978Z,32.20
2023-02-11T23:36:45.612Z,34.20
2023-02-11T23:39:16.760Z,33.88
2023-02-11T23:41:43.390Z,31.77
2023-02-11T23:44:10.835Z,32.50
2023-02-11T23:46:38.935Z,31.42
2023-02-11T23:49:08.008Z,31.30
2023-02-11T23:51:34.585Z,31.48
2023-02-11T23:54:02.299Z,32.50
2023-02-11T23:56:29.152Z,32.38
2023-02-11T23:58:58.941Z,32.35
